Matheson, Colorado
Current Conditions -  °F | °C
As of 11:55 AM on Thursday 23 Oct 2014 (Local Time) from KLIC Reporting Station
Clear Clear  
Wind Chill: 67°   Ceiling: Unl
Heat Index: 67°   Visibility: 10mi
Dew Point: 29°   Wind: 7mph
Humidity: 24%   Direction: 250°WSW
Pressure: 30.18"   Gusts: NA
Location:  39.17°N, 103.98°W
Report Text: KLIC 231755Z AUTO 25006KT 10SM CLR 19/M02 A3018 RMK AO2 SLP178 60000 T01941017 10200 20022 58006
Loading
Personal Weather Stations






























Interactive Weather Map
Tropical Storm Tracking
New forecast layout! Learn more

10-Day Weather Forecast

Advertisements
Track Severe Weather on mobile